Time;durP1;ratioP1;P1;durP2;ratioP2;P2;SDS_P1;SDS_P2;PMS_P1;PMS_P2;Temp;Humidity;BMP_temperature;BMP_pressure;BME280_temperature;BME280_humidity;BME280_pressure;Samples;Min_cycle;Max_cycle;Signal;HPM_P1;HPM_P2
2023/12/07 00:00:13;;;;;;;12.20;5.22;;;;;;;5.39;100.00;98596.63;6276819;22;20028;-92
2023/12/07 00:02:39;;;;;;;12.57;5.93;;;;;;;5.71;100.00;98622.69;6280086;22;20022;-94
2023/12/07 00:05:06;;;;;;;17.25;6.55;;;;;;;5.71;100.00;98635.88;6280249;22;20011;-93
2023/12/07 00:07:31;;;;;;;14.68;5.47;;;;;;;5.62;100.00;98625.44;6279858;22;20019;-90
2023/12/07 00:09:59;;;;;;;10.95;5.10;;;;;;;6.36;100.00;98715.31;6280154;22;20019;-91
2023/12/07 00:12:25;;;;;;;13.10;5.90;;;;;;;5.75;100.00;98632.31;6280333;22;20468;-92
2023/12/07 00:14:50;;;;;;;12.57;5.38;;;;;;;5.79;100.00;98639.31;6279545;22;20102;-91
2023/12/07 00:17:17;;;;;;;17.20;6.38;;;;;;;5.58;100.00;98626.34;6276901;22;20054;-92
2023/12/07 00:19:42;;;;;;;13.50;5.30;;;;;;;5.34;100.00;98554.47;6280042;22;20050;-91
2023/12/07 00:22:08;;;;;;;15.07;5.95;;;;;;;5.70;100.00;98592.81;6279148;22;20015;-91
2023/12/07 00:24:34;;;;;;;12.30;6.13;;;;;;;6.55;100.00;98723.91;6279362;22;20549;-92
2023/12/07 00:27:05;;;;;;;14.00;5.68;;;;;;;5.43;100.00;98603.63;6305310;22;20011;-93
2023/12/07 00:29:31;;;;;;;15.60;6.05;;;;;;;6.07;100.00;98737.63;6279411;22;20054;-91
2023/12/07 00:32:01;;;;;;;13.48;5.47;;;;;;;5.76;100.00;98684.19;6276895;22;20019;-92
2023/12/07 00:34:27;;;;;;;14.40;6.20;;;;;;;6.02;100.00;98706.84;6280218;22;20062;-92
2023/12/07 00:36:52;;;;;;;16.88;6.45;;;;;;;5.82;100.00;98713.16;6301692;22;20026;-89
2023/12/07 00:39:18;;;;;;;15.10;5.95;;;;;;;6.07;100.00;98734.06;6313076;22;20018;-93
2023/12/07 00:41:44;;;;;;;14.27;6.40;;;;;;;5.49;100.00;98625.53;6313119;22;20019;-92
2023/12/07 00:44:11;;;;;;;14.27;5.95;;;;;;;5.29;100.00;98638.00;6312631;22;20437;-91
2023/12/07 00:46:37;;;;;;;14.02;5.20;;;;;;;5.82;100.00;98681.50;6309419;22;20026;-92
2023/12/07 00:49:03;;;;;;;14.65;5.65;;;;;;;6.03;100.00;98687.47;6313699;22;20026;-92
2023/12/07 00:51:29;;;;;;;17.98;7.32;;;;;;;5.58;100.00;98597.31;6312831;22;20019;-91
2023/12/07 00:53:54;;;;;;;13.52;5.65;;;;;;;6.63;100.00;98740.53;6312888;22;20326;-91
2023/12/07 00:56:20;;;;;;;14.85;6.57;;;;;;;6.14;100.00;98712.03;6312975;22;20105;-91
2023/12/07 00:58:46;;;;;;;11.80;5.35;;;;;;;6.14;100.00;98688.25;6312631;22;20015;-92
2023/12/07 01:01:14;;;;;;;12.40;5.53;;;;;;;5.72;100.00;98632.34;6310436;22;20455;-92
2023/12/07 01:03:40;;;;;;;13.93;5.93;;;;;;;5.69;100.00;98720.31;6312950;22;20051;-91
2023/12/07 01:06:06;;;;;;;14.75;5.88;;;;;;;5.58;100.00;98676.44;6312964;22;20019;-91
2023/12/07 01:08:32;;;;;;;15.10;5.65;;;;;;;5.94;100.00;98710.47;6313134;22;20041;-92
2023/12/07 01:10:58;;;;;;;14.10;6.20;;;;;;;6.12;100.00;98700.59;6312687;22;20448;-92
2023/12/07 01:13:24;;;;;;;14.13;6.07;;;;;;;6.00;100.00;98671.69;6313456;22;20030;-91
2023/12/07 01:15:50;;;;;;;12.18;5.43;;;;;;;5.94;100.00;98668.22;6310552;22;20096;-93
2023/12/07 01:18:17;;;;;;;15.43;6.50;;;;;;;5.80;100.00;98707.03;6339066;22;20018;-91
2023/12/07 01:20:43;;;;;;;18.85;7.25;;;;;;;4.87;100.00;98568.91;6338762;22;20437;-93
2023/12/07 01:23:09;;;;;;;16.15;6.95;;;;;;;5.35;100.00;98664.31;6312283;22;20019;-91
2023/12/07 01:25:35;;;;;;;20.38;7.32;;;;;;;5.45;100.00;98712.59;6312748;22;20021;-90
2023/12/07 01:28:00;;;;;;;18.38;7.32;;;;;;;5.51;100.00;98702.88;6312414;22;20022;-93
2023/12/07 01:30:27;;;;;;;19.52;7.50;;;;;;;5.39;100.00;98650.22;6309635;22;20318;-92
2023/12/07 01:32:52;;;;;;;17.05;7.60;;;;;;;5.62;100.00;98678.19;6312832;22;20023;-93
2023/12/07 01:35:20;;;;;;;15.43;6.53;;;;;;;5.91;100.00;98714.84;6312830;22;20023;-92
2023/12/07 01:37:46;;;;;;;13.02;5.22;;;;;;;6.05;100.00;98720.00;6312849;22;20107;-93
2023/12/07 01:40:12;;;;;;;20.90;7.55;;;;;;;5.77;100.00;98712.34;6312568;22;20015;-91
2023/12/07 01:42:38;;;;;;;17.88;7.20;;;;;;;4.90;100.00;98556.59;6312462;22;20023;-93
2023/12/07 01:45:05;;;;;;;15.43;6.30;;;;;;;5.80;100.00;98693.84;6311017;22;20050;-91
2023/12/07 01:47:32;;;;;;;15.45;6.47;;;;;;;5.69;100.00;98717.66;6312225;22;20073;-91
2023/12/07 01:49:58;;;;;;;15.57;6.57;;;;;;;5.17;100.00;98611.75;6312149;22;20022;-92
2023/12/07 01:52:28;;;;;;;13.93;5.95;;;;;;;6.06;100.00;98733.22;6312383;22;20149;-90
2023/12/07 01:54:55;;;;;;;16.63;6.13;;;;;;;6.20;100.00;98727.78;6312469;22;20019;-92
2023/12/07 01:57:21;;;;;;;13.95;6.78;;;;;;;5.69;100.00;98625.34;6312661;22;20345;-93
2023/12/07 01:59:48;;;;;;;16.35;6.75;;;;;;;6.15;100.00;98690.00;6312360;22;20337;-92
2023/12/07 02:02:14;;;;;;;14.43;5.65;;;;;;;5.87;100.00;98621.63;6335707;22;20063;-91
2023/12/07 02:04:41;;;;;;;16.05;7.80;;;;;;;5.79;100.00;98636.69;6312376;22;20461;-91
2023/12/07 02:07:07;;;;;;;14.38;5.47;;;;;;;6.27;100.00;98710.13;6312327;22;20448;-92
2023/12/07 02:09:35;;;;;;;15.57;5.95;;;;;;;5.45;100.00;98586.00;6311959;22;20088;-91
2023/12/07 02:12:01;;;;;;;16.35;7.47;;;;;;;5.87;100.00;98679.69;6312333;22;20411;-93
2023/12/07 02:14:27;;;;;;;16.13;6.72;;;;;;;5.43;100.00;98620.31;6312225;22;20018;-91
2023/12/07 02:17:02;;;;;;;17.20;7.28;;;;;;;6.22;100.00;98781.44;6310178;22;20018;-91
2023/12/07 02:19:52;;;;;;;16.58;7.22;;;;;;;5.68;100.00;98746.69;6312165;22;20105;-93
2023/12/07 02:22:25;;;;;;;15.82;6.18;;;;;;;5.31;100.00;98663.47;6312549;22;20018;-93
2023/12/07 02:25:04;;;;;;;20.35;7.72;;;;;;;5.65;100.00;98762.56;6312127;22;20022;-93
2023/12/07 02:27:39;;;;;;;18.35;7.35;;;;;;;5.34;100.00;98768.03;6312131;22;20021;-92
2023/12/07 02:30:06;;;;;;;15.10;6.72;;;;;;;5.52;100.00;98740.66;6309635;22;20027;-90
2023/12/07 02:32:32;;;;;;;18.92;7.05;;;;;;;5.72;100.00;98730.81;6311934;22;20030;-92
2023/12/07 02:34:59;;;;;;;15.77;6.15;;;;;;;6.30;100.00;98784.03;6312399;22;20033;-92
2023/12/07 02:37:28;;;;;;;17.63;6.15;;;;;;;6.11;100.00;98786.84;6283272;22;20023;-90
2023/12/07 02:39:56;;;;;;;16.38;6.10;;;;;;;5.99;100.00;98738.59;6281142;22;20020;-92
2023/12/07 02:42:24;;;;;;;18.23;6.78;;;;;;;5.96;100.00;98752.66;6281177;22;20064;-92
2023/12/07 02:44:53;;;;;;;13.82;6.10;;;;;;;6.29;100.00;98795.47;6281181;22;20026;-91
2023/12/07 02:47:19;;;;;;;15.30;6.15;;;;;;;4.82;100.00;98644.50;6278581;22;20069;-92
2023/12/07 02:49:44;;;;;;;13.55;5.63;;;;;;;5.46;100.00;98720.47;6281152;22;20081;-93
2023/12/07 02:52:10;;;;;;;18.42;7.00;;;;;;;5.54;100.00;98760.00;6281133;22;20063;-92
2023/12/07 02:54:36;;;;;;;14.70;5.72;;;;;;;6.04;100.00;98792.19;6280934;22;20068;-93
2023/12/07 02:57:02;;;;;;;19.33;6.57;;;;;;;5.36;100.00;98676.63;6280569;22;20038;-92
2023/12/07 02:59:28;;;;;;;17.48;6.80;;;;;;;5.64;100.00;98732.69;6281380;22;20043;-92
2023/12/07 03:01:55;;;;;;;13.35;6.07;;;;;;;5.00;100.00;98594.28;6278599;22;20092;-93
2023/12/07 03:04:21;;;;;;;13.98;5.25;;;;;;;6.02;100.00;98757.88;6280830;22;20019;-91
2023/12/07 03:06:47;;;;;;;14.80;5.97;;;;;;;5.57;100.00;98683.47;6281075;22;20088;-91
2023/12/07 03:09:13;;;;;;;18.73;6.50;;;;;;;5.63;100.00;98745.88;6280844;22;20445;-94
2023/12/07 03:11:39;;;;;;;17.45;7.07;;;;;;;5.45;100.00;98702.91;6281088;22;20353;-93
2023/12/07 03:14:04;;;;;;;16.30;6.68;;;;;;;5.56;100.00;98743.28;6280855;22;20433;-92
2023/12/07 03:16:30;;;;;;;15.25;5.95;;;;;;;5.22;100.00;98673.19;6279043;22;20019;-93
2023/12/07 03:18:58;;;;;;;14.57;6.22;;;;;;;5.00;100.00;98672.47;6280922;22;20026;-93
2023/12/07 03:21:23;;;;;;;17.30;6.15;;;;;;;4.93;100.00;98711.16;6280640;22;20473;-92
2023/12/07 03:23:49;;;;;;;13.73;5.80;;;;;;;5.48;100.00;98760.03;6281100;22;20019;-94
2023/12/07 03:26:15;;;;;;;15.02;5.80;;;;;;;5.33;100.00;98709.16;6306740;22;20046;-91
2023/12/07 03:28:41;;;;;;;13.07;5.18;;;;;;;5.04;100.00;98675.06;6280925;22;20015;-92
2023/12/07 03:31:07;;;;;;;17.13;7.40;;;;;;;5.28;100.00;98736.44;6278780;22;20338;-91
2023/12/07 03:33:33;;;;;;;17.15;6.65;;;;;;;5.73;100.00;98801.19;6280850;22;20027;-93
2023/12/07 03:36:00;;;;;;;12.65;5.70;;;;;;;5.96;100.00;98811.63;6290555;22;20092;-92
2023/12/07 03:38:26;;;;;;;15.05;5.93;;;;;;;5.50;100.00;98751.22;6311537;22;20057;-92
2023/12/07 03:40:52;;;;;;;15.70;6.47;;;;;;;5.41;100.00;98743.38;6311154;22;20019;-92
2023/12/07 03:43:20;;;;;;;14.65;5.40;;;;;;;5.52;100.00;98773.19;6311649;22;20046;-92
2023/12/07 03:45:46;;;;;;;15.93;6.10;;;;;;;5.68;100.00;98816.19;6309949;22;20023;-91
2023/12/07 03:48:12;;;;;;;15.52;6.05;;;;;;;5.14;100.00;98715.44;6311586;22;20019;-91
2023/12/07 03:50:38;;;;;;;14.65;5.85;;;;;;;4.85;100.00;98662.91;6337779;22;20019;-92
2023/12/07 03:53:05;;;;;;;20.98;6.80;;;;;;;5.28;100.00;98742.59;6311841;22;20064;-93
2023/12/07 03:55:31;;;;;;;12.80;4.90;;;;;;;5.88;100.00;98808.13;6312058;22;20019;-93
2023/12/07 03:57:57;;;;;;;13.35;5.55;;;;;;;5.81;100.00;98802.88;6311350;22;20015;-91
2023/12/07 04:00:23;;;;;;;14.68;5.15;;;;;;;5.81;100.00;98816.94;6308203;22;20110;-94
2023/12/07 04:02:49;;;;;;;14.45;5.88;;;;;;;5.07;100.00;98705.81;6311335;22;20046;-92
2023/12/07 04:05:15;;;;;;;13.85;5.80;;;;;;;5.62;100.00;98796.88;6311206;22;20022;-92
2023/12/07 04:07:41;;;;;;;14.50;5.32;;;;;;;5.79;100.00;98804.66;6311343;22;20039;-92
2023/12/07 04:10:12;;;;;;;15.05;6.25;;;;;;;5.79;100.00;98795.00;6311797;22;20053;-92
2023/12/07 04:12:38;;;;;;;16.65;6.05;;;;;;;5.52;100.00;98772.31;6312184;22;20072;-92
2023/12/07 04:15:05;;;;;;;14.60;6.10;;;;;;;5.40;100.00;98810.22;6311071;22;20023;-91
2023/12/07 04:17:31;;;;;;;13.73;6.20;;;;;;;5.37;100.00;98760.09;6313663;22;20023;-93
2023/12/07 04:19:57;;;;;;;13.15;4.88;;;;;;;5.35;100.00;98757.47;6313686;22;20071;-90
2023/12/07 04:22:23;;;;;;;13.70;5.95;;;;;;;5.43;100.00;98783.81;6339845;22;20472;-92
2023/12/07 04:24:49;;;;;;;16.33;6.15;;;;;;;5.11;100.00;98807.69;6313986;22;20137;-92
2023/12/07 04:27:16;;;;;;;16.50;5.78;;;;;;;4.87;100.00;98738.41;6313501;22;20015;-93
2023/12/07 04:29:42;;;;;;;12.43;5.47;;;;;;;4.91;100.00;98786.72;6313032;22;20018;-92
2023/12/07 04:32:08;;;;;;;14.63;4.57;;;;;;;4.95;100.00;98756.84;6311231;22;20101;-90
2023/12/07 04:34:34;;;;;;;15.52;5.13;;;;;;;4.80;100.00;98739.34;6313195;22;20445;-91
2023/12/07 04:37:00;;;;;;;11.95;4.50;;;;;;;4.97;100.00;98778.78;6289917;22;20074;-93
2023/12/07 04:39:26;;;;;;;14.65;4.78;;;;;;;4.70;100.00;98708.63;6282746;22;20015;-93
2023/12/07 04:41:52;;;;;;;12.48;5.88;;;;;;;5.10;100.00;98841.09;6282439;22;20019;-93
2023/12/07 04:44:19;;;;;;;14.65;6.32;;;;;;;4.98;100.00;98866.63;6282236;22;20500;-93
2023/12/07 04:46:45;;;;;;;14.25;7.03;;;;;;;4.57;100.00;98850.03;6280390;22;20327;-92
2023/12/07 04:49:11;;;;;;;10.75;4.78;;;;;;;4.45;100.00;98747.38;6282349;22;20105;-93
2023/12/07 04:51:37;;;;;;;12.60;4.55;;;;;;;4.86;100.00;98796.41;6282235;22;20019;-94
2023/12/07 04:54:03;;;;;;;20.27;6.63;;;;;;;4.24;100.00;98714.06;6282472;22;20015;-92
2023/12/07 04:56:29;;;;;;;15.45;5.18;;;;;;;4.58;100.00;98742.94;6282477;22;20019;-92
2023/12/07 04:58:54;;;;;;;11.88;5.20;;;;;;;5.03;100.00;98793.69;6283032;22;20434;-95
2023/12/07 05:01:22;;;;;;;13.60;5.55;;;;;;;4.85;100.00;98757.75;6280376;22;20341;-93
2023/12/07 05:03:48;;;;;;;16.98;6.38;;;;;;;4.68;100.00;98799.94;6283484;22;20322;-92
2023/12/07 05:06:14;;;;;;;15.65;5.88;;;;;;;3.97;100.00;98681.69;6283066;22;20349;-94
2023/12/07 05:08:40;;;;;;;13.80;5.57;;;;;;;4.81;100.00;98872.81;6308524;22;20011;-92
2023/12/07 05:11:06;;;;;;;13.60;5.55;;;;;;;4.10;100.00;98764.13;6282160;22;20026;-92
2023/12/07 05:13:33;;;;;;;11.40;5.32;;;;;;;4.77;100.00;98852.63;6282264;22;20019;-94
2023/12/07 05:15:59;;;;;;;15.65;5.63;;;;;;;4.74;100.00;98829.78;6280158;22;20019;-92
2023/12/07 05:18:27;;;;;;;12.10;4.43;;;;;;;4.57;100.00;98778.91;6282231;22;20020;-93
2023/12/07 05:20:52;;;;;;;14.40;5.00;;;;;;;4.65;100.00;98777.13;6282617;22;20019;-93
2023/12/07 05:23:18;;;;;;;12.25;4.40;;;;;;;4.81;100.00;98787.63;6282253;22;20049;-93
2023/12/07 05:25:44;;;;;;;16.23;5.35;;;;;;;4.73;100.00;98867.56;6282375;22;20049;-93
2023/12/07 05:28:10;;;;;;;13.10;4.55;;;;;;;4.79;100.00;98845.56;6282485;22;20016;-93
2023/12/07 05:30:36;;;;;;;10.88;4.97;;;;;;;4.30;100.00;98722.81;6279842;22;20338;-92
2023/12/07 05:33:02;;;;;;;13.10;5.20;;;;;;;5.31;100.00;98902.53;6308048;22;20051;-92
2023/12/07 05:35:29;;;;;;;14.85;4.45;;;;;;;5.17;100.00;98880.63;6286271;22;20019;-94
2023/12/07 05:37:55;;;;;;;12.25;5.03;;;;;;;4.63;100.00;98780.66;6313069;22;20015;-92
2023/12/07 05:40:21;;;;;;;12.18;4.63;;;;;;;4.30;100.00;98787.78;6313287;22;20042;-94
2023/12/07 05:42:49;;;;;;;11.60;4.38;;;;;;;4.86;100.00;98852.59;6313742;22;20053;-93
2023/12/07 05:45:15;;;;;;;11.32;4.88;;;;;;;4.25;100.00;98813.19;6310986;22;20034;-93
2023/12/07 05:47:41;;;;;;;14.13;4.93;;;;;;;4.66;100.00;98886.00;6312814;22;20025;-92
2023/12/07 05:50:08;;;;;;;12.80;4.63;;;;;;;4.51;100.00;98858.81;6312445;22;20023;-90
2023/12/07 05:52:35;;;;;;;10.38;4.25;;;;;;;3.93;100.00;98743.06;6312966;22;20025;-93
2023/12/07 05:55:01;;;;;;;13.15;5.15;;;;;;;4.09;100.00;98765.84;6313024;22;20048;-91
2023/12/07 05:57:27;;;;;;;14.85;5.07;;;;;;;4.93;100.00;98920.22;6313154;22;20019;-92
2023/12/07 05:59:53;;;;;;;15.70;7.30;;;;;;;4.48;100.00;98823.72;6314704;22;20345;-92
2023/12/07 06:02:19;;;;;;;14.57;5.10;;;;;;;4.68;100.00;98866.72;6311416;22;20022;-93
2023/12/07 06:04:44;;;;;;;11.88;4.43;;;;;;;4.79;100.00;98869.28;6313391;22;20025;-93
2023/12/07 06:07:12;;;;;;;12.85;4.88;;;;;;;5.03;100.00;98917.53;6314001;22;20019;-94
2023/12/07 06:09:39;;;;;;;12.82;5.90;;;;;;;5.28;100.00;98942.09;6313401;22;20455;-91
2023/12/07 06:12:05;;;;;;;12.15;5.53;;;;;;;4.87;100.00;98956.25;6314398;22;20045;-92
2023/12/07 06:14:32;;;;;;;17.05;5.78;;;;;;;4.30;100.00;98848.31;6314512;22;20444;-92
2023/12/07 06:16:59;;;;;;;16.10;5.47;;;;;;;4.92;100.00;98912.28;6314038;22;20345;-92
2023/12/07 06:19:24;;;;;;;15.10;6.03;;;;;;;4.76;100.00;98900.91;6313164;22;20352;-92
2023/12/07 06:21:50;;;;;;;11.88;4.38;;;;;;;4.35;100.00;98807.06;6312456;22;20019;-92
2023/12/07 06:24:16;;;;;;;16.58;6.57;;;;;;;4.70;100.00;98919.38;6313038;22;20047;-92
2023/12/07 06:26:44;;;;;;;17.45;4.90;;;;;;;4.24;100.00;98851.81;6314367;22;20040;-93
2023/12/07 06:29:10;;;;;;;13.60;5.60;;;;;;;3.40;100.00;98771.09;6314747;22;20023;-94
2023/12/07 06:31:36;;;;;;;17.45;5.60;;;;;;;4.26;100.00;98926.41;6311058;22;20019;-93
2023/12/07 06:34:02;;;;;;;17.23;6.15;;;;;;;3.80;100.00;98841.28;6313740;22;20014;-93
2023/12/07 06:36:28;;;;;;;12.18;4.40;;;;;;;4.40;100.00;98901.81;6312803;22;20444;-93
2023/12/07 06:38:55;;;;;;;16.30;5.30;;;;;;;4.00;100.00;98825.50;6312221;22;20021;-92
2023/12/07 06:41:21;;;;;;;14.63;5.47;;;;;;;4.61;100.00;98922.88;6312523;22;20029;-91
2023/12/07 06:43:48;;;;;;;13.05;5.97;;;;;;;4.18;100.00;98819.34;6312637;22;20366;-93
2023/12/07 06:46:16;;;;;;;17.48;5.40;;;;;;;4.29;100.00;98922.88;6310129;22;20072;-95
2023/12/07 06:48:42;;;;;;;13.20;5.30;;;;;;;4.48;100.00;98974.69;6312447;22;20015;-92
2023/12/07 06:51:08;;;;;;;14.48;6.88;;;;;;;3.90;100.00;98893.00;6312224;22;20329;-91
2023/12/07 06:53:33;;;;;;;15.15;5.10;;;;;;;4.33;100.00;98930.78;6312215;22;20014;-91
2023/12/07 06:55:59;;;;;;;16.58;5.85;;;;;;;4.49;100.00;98950.13;6312726;22;20018;-92
2023/12/07 06:58:25;;;;;;;15.75;4.60;;;;;;;3.97;100.00;98870.22;6312688;22;20019;-93
2023/12/07 07:00:53;;;;;;;14.50;5.47;;;;;;;2.99;100.00;98756.13;6311193;22;20015;-92
2023/12/07 07:03:19;;;;;;;18.98;6.30;;;;;;;4.27;100.00;98919.38;6315520;22;20030;-92
2023/12/07 07:05:45;;;;;;;14.70;5.65;;;;;;;4.32;100.00;98900.09;6312116;22;20019;-92
2023/12/07 07:08:10;;;;;;;14.90;4.95;;;;;;;4.89;100.00;98975.56;6312559;22;20011;-93
2023/12/07 07:10:36;;;;;;;15.35;5.25;;;;;;;5.13;100.00;99004.50;6312787;22;20019;-93
2023/12/07 07:13:04;;;;;;;16.63;5.63;;;;;;;4.92;100.00;98950.09;6312364;22;20180;-93
2023/12/07 07:15:30;;;;;;;14.18;4.70;;;;;;;4.14;100.00;98872.88;6311182;22;20471;-92
2023/12/07 07:17:57;;;;;;;13.77;4.97;;;;;;;4.10;100.00;98919.38;6312410;22;20022;-93
2023/12/07 07:20:23;;;;;;;12.85;4.68;;;;;;;4.55;100.00;98954.50;6312597;22;20104;-91
2023/12/07 07:22:49;;;;;;;13.80;4.47;;;;;;;4.89;100.00;98994.88;6312165;22;20027;-92
2023/12/07 07:25:16;;;;;;;14.82;4.93;;;;;;;4.65;100.00;98939.56;6312416;22;20046;-91
2023/12/07 07:27:42;;;;;;;15.77;5.30;;;;;;;4.68;100.00;98945.72;6311930;22;20019;-93
2023/12/07 07:30:08;;;;;;;12.82;4.63;;;;;;;4.37;100.00;98886.03;6310918;22;20030;-91
2023/12/07 07:32:34;;;;;;;12.30;4.75;;;;;;;4.79;100.00;98943.06;6312185;22;20029;-92
2023/12/07 07:35:02;;;;;;;14.68;5.25;;;;;;;4.66;100.00;98929.06;6311904;22;20361;-93
2023/12/07 07:37:28;;;;;;;13.18;4.65;;;;;;;4.49;100.00;98917.66;6311910;22;20018;-92
2023/12/07 07:39:54;;;;;;;12.85;4.75;;;;;;;5.07;100.00;99008.91;6312605;22;20101;-92
2023/12/07 07:42:20;;;;;;;13.25;5.10;;;;;;;5.03;100.00;99012.44;6312497;22;20042;-92
2023/12/07 07:44:45;;;;;;;14.35;5.47;;;;;;;4.43;100.00;98934.31;6311909;22;20018;-92
2023/12/07 07:47:11;;;;;;;15.07;5.07;;;;;;;4.77;100.00;98973.81;6312015;22;20038;-92
2023/12/07 07:49:37;;;;;;;13.60;5.18;;;;;;;4.52;100.00;98957.13;6312346;22;20022;-94
2023/12/07 07:52:05;;;;;;;13.77;4.30;;;;;;;3.54;100.00;98821.09;6312408;22;20023;-93
2023/12/07 07:54:31;;;;;;;14.52;5.30;;;;;;;3.44;100.00;98822.81;6338491;22;20019;-93
2023/12/07 07:56:57;;;;;;;11.93;4.70;;;;;;;4.52;100.00;98983.47;6312301;22;20015;-92
2023/12/07 07:59:22;;;;;;;12.63;4.57;;;;;;;3.71;100.00;98910.53;6312006;22;20401;-91
2023/12/07 08:01:50;;;;;;;11.45;5.25;;;;;;;3.77;100.00;98928.06;6310985;22;20050;-93
2023/12/07 08:04:16;;;;;;;13.40;5.30;;;;;;;3.14;100.00;98885.78;6312467;22;20030;-91
2023/12/07 08:06:42;;;;;;;10.10;4.32;;;;;;;3.37;100.00;98910.41;6312561;22;20432;-92
2023/12/07 08:09:09;;;;;;;15.85;5.38;;;;;;;3.76;100.00;98964.03;6312671;22;20019;-91
2023/12/07 08:11:35;;;;;;;9.90;4.78;;;;;;;2.96;100.00;98818.28;6312215;22;20030;-93
2023/12/07 08:14:01;;;;;;;12.20;4.82;;;;;;;4.19;100.00;99006.25;6312379;22;20019;-92
2023/12/07 08:16:30;;;;;;;15.07;4.75;;;;;;;3.50;100.00;98891.16;6312062;22;20014;-93
2023/12/07 08:18:58;;;;;;;10.95;4.75;;;;;;;3.92;100.00;98904.41;6312131;22;20019;-92
2023/12/07 08:21:25;;;;;;;12.18;6.00;;;;;;;3.72;100.00;98838.63;6312387;22;20389;-92
2023/12/07 08:23:51;;;;;;;13.88;5.10;;;;;;;3.18;100.00;98835.00;6311715;22;20056;-93
2023/12/07 08:26:19;;;;;;;15.60;5.65;;;;;;;3.29;100.00;98859.56;6311627;22;20026;-92
2023/12/07 08:28:47;;;;;;;13.45;4.57;;;;;;;3.86;100.00;98902.69;6311960;22;20338;-93
2023/12/07 08:31:13;;;;;;;11.18;4.18;;;;;;;3.75;100.00;98843.88;6311567;22;20025;-94
2023/12/07 08:33:39;;;;;;;12.40;4.80;;;;;;;4.26;100.00;98913.25;6312432;22;20042;-91
2023/12/07 08:36:08;;;;;;;16.13;5.18;;;;;;;4.73;100.00;99053.72;6312465;22;20416;-92
2023/12/07 08:38:34;;;;;;;17.80;6.15;;;;;;;4.01;100.00;98914.09;6313137;22;20098;-93
2023/12/07 08:41:00;;;;;;;14.27;4.90;;;;;;;4.35;100.00;98908.84;6312461;22;20480;-92
2023/12/07 08:43:28;;;;;;;14.68;5.35;;;;;;;4.45;100.00;98921.16;6312217;22;20053;-93
2023/12/07 08:45:54;;;;;;;16.45;5.53;;;;;;;5.24;100.00;99041.41;6310876;22;20056;-93
2023/12/07 08:48:20;;;;;;;11.50;4.72;;;;;;;4.41;100.00;98893.94;6312234;22;20019;-93
2023/12/07 08:50:46;;;;;;;16.55;5.03;;;;;;;4.32;100.00;98865.84;6312638;22;20019;-93
2023/12/07 08:53:15;;;;;;;13.98;5.60;;;;;;;4.06;100.00;98880.78;6312647;22;20417;-93
2023/12/07 08:55:46;;;;;;;14.07;5.20;;;;;;;4.27;100.00;98899.22;6312162;22;20025;-93
2023/12/07 08:58:15;;;;;;;12.35;5.00;;;;;;;4.26;100.00;98878.16;6313356;22;20011;-93
2023/12/07 09:00:45;;;;;;;15.30;5.03;;;;;;;5.29;100.00;99028.22;6313133;22;20019;-92
2023/12/07 09:03:11;;;;;;;12.82;4.70;;;;;;;5.24;100.00;99024.72;6314698;22;20018;-91
2023/12/07 09:05:37;;;;;;;15.63;5.53;;;;;;;5.03;100.00;98965.88;6314725;22;20071;-93
2023/12/07 09:08:04;;;;;;;12.35;4.88;;;;;;;5.05;100.00;98971.13;6314004;22;20018;-93
2023/12/07 09:10:32;;;;;;;12.48;4.97;;;;;;;4.80;100.00;98912.34;6313967;22;20026;-93
2023/12/07 09:12:58;;;;;;;13.43;5.20;;;;;;;4.81;100.00;98914.09;6313651;22;20019;-93
2023/12/07 09:15:24;;;;;;;14.77;6.70;;;;;;;5.85;100.00;99058.84;6313139;22;20341;-93
2023/12/07 09:17:51;;;;;;;14.60;5.57;;;;;;;4.69;100.00;98907.97;6314364;22;20019;-93
2023/12/07 09:20:17;;;;;;;13.68;5.28;;;;;;;5.42;100.00;99063.34;6313758;22;20023;-92
2023/12/07 09:22:48;;;;;;;10.82;4.47;;;;;;;5.23;100.00;99044.94;6314155;22;20022;-92
2023/12/07 09:25:15;;;;;;;13.80;4.75;;;;;;;5.06;100.00;98959.72;6313499;22;20445;-92
2023/12/07 09:27:41;;;;;;;13.35;5.30;;;;;;;5.33;100.00;98987.78;6313442;22;20384;-92
2023/12/07 09:30:12;;;;;;;14.35;5.38;;;;;;;5.76;100.00;99051.84;6312424;22;20878;-92
2023/12/07 09:32:42;;;;;;;14.80;5.47;;;;;;;6.16;100.00;99078.13;6312229;22;20045;-93
2023/12/07 09:35:17;;;;;;;15.63;6.32;;;;;;;5.09;100.00;98897.31;6313542;22;20022;-91
2023/12/07 09:37:44;;;;;;;11.30;4.82;;;;;;;6.15;100.00;99038.53;6313090;22;20107;-92
2023/12/07 09:40:25;;;;;;;15.40;5.53;;;;;;;5.99;100.00;98970.88;6313645;22;20084;-91
2023/12/07 09:42:51;;;;;;;11.90;4.75;;;;;;;6.55;100.00;99038.31;6314019;22;20015;-93
2023/12/07 09:45:27;;;;;;;14.40;5.93;;;;;;;5.88;100.00;98921.59;6312808;22;20018;-94
2023/12/07 09:47:54;;;;;;;16.35;5.88;;;;;;;5.80;100.00;98910.22;6312906;22;20022;-94
2023/12/07 09:50:24;;;;;;;17.77;6.38;;;;;;;6.12;100.00;98952.28;6313668;22;20075;-90
2023/12/07 09:52:58;;;;;;;13.30;4.95;;;;;;;6.09;100.00;98936.44;6313569;22;20114;-94
2023/12/07 09:55:24;;;;;;;14.18;5.40;;;;;;;6.37;100.00;98992.59;6313717;22;20445;-93
2023/12/07 09:57:51;;;;;;;15.32;6.43;;;;;;;6.78;100.00;99041.66;6312923;22;20310;-91
2023/12/07 10:00:17;;;;;;;16.33;9.02;;;;;;;6.88;100.00;99060.09;6312792;22;20395;-92
2023/12/07 10:02:46;;;;;;;19.27;8.65;;;;;;;6.12;100.00;98917.09;6339308;22;20014;-91
2023/12/07 10:05:13;;;;;;;14.95;6.50;;;;;;;6.64;100.00;99011.81;6339907;22;20023;-93
2023/12/07 10:07:42;;;;;;;18.23;6.50;;;;;;;6.12;100.00;98911.81;6313427;22;20076;-93
2023/12/07 10:10:11;;;;;;;15.85;6.63;;;;;;;5.89;100.00;98893.44;6313592;22;20038;-94
2023/12/07 10:12:46;;;;;;;29.52;16.85;;;;;;;5.95;100.00;98906.66;6313435;22;20019;-92
2023/12/07 10:15:13;;;;;;;22.00;10.40;;;;;;;6.79;100.00;99045.19;6312460;22;20046;-91
2023/12/07 10:17:51;;;;;;;20.90;7.35;;;;;;;6.76;100.00;99048.69;6312790;22;20068;-93
2023/12/07 10:20:21;;;;;;;15.77;6.32;;;;;;;7.01;100.00;99074.97;6312586;22;20437;-92
2023/12/07 10:23:01;;;;;;;14.07;5.30;;;;;;;5.94;100.00;98884.66;6313842;22;20433;-91
2023/12/07 10:25:30;;;;;;;25.55;7.60;;;;;;;5.89;100.00;98878.47;6313155;22;20019;-91
2023/12/07 10:28:00;;;;;;;16.35;6.47;;;;;;;6.23;100.00;98960.16;6313799;22;20067;-93
2023/12/07 10:30:27;;;;;;;14.30;5.90;;;;;;;6.74;100.00;99032.00;6312301;22;20025;-95
2023/12/07 10:32:53;;;;;;;18.90;7.10;;;;;;;5.85;100.00;98866.19;6313144;22;20022;-92
2023/12/07 10:35:22;;;;;;;15.60;6.75;;;;;;;5.95;100.00;98904.88;6312692;22;20022;-93
2023/12/07 10:37:51;;;;;;;15.65;6.95;;;;;;;6.16;100.00;98956.66;6313769;22;20014;-94
2023/12/07 10:40:21;;;;;;;14.38;5.72;;;;;;;5.94;100.00;98866.19;6313297;22;20046;-93
2023/12/07 10:42:48;;;;;;;21.02;7.78;;;;;;;6.45;100.00;98920.38;6312083;22;20037;-91
2023/12/07 10:45:15;;;;;;;14.48;7.43;;;;;;;6.06;100.00;98867.84;6311970;22;20019;-90
2023/12/07 10:47:46;;;;;;;17.10;7.65;;;;;;;7.00;100.00;99012.38;6338717;22;20034;-93
2023/12/07 10:50:21;;;;;;;14.70;7.28;;;;;;;6.68;100.00;98939.56;6312355;22;20015;-92
2023/12/07 10:52:55;;;;;;;14.05;6.50;;;;;;;6.63;100.00;98912.28;6312484;22;20022;-91
2023/12/07 10:55:28;;;;;;;31.00;15.40;;;;;;;7.34;100.00;99015.59;6312497;22;20022;-92
2023/12/07 10:57:55;;;;;;;21.23;8.95;;;;;;;6.79;100.00;98926.25;6311814;22;20046;-94
2023/12/07 11:00:24;;;;;;;17.00;6.65;;;;;;;6.18;100.00;98858.97;6338006;22;20027;-95
2023/12/07 11:02:53;;;;;;;18.60;7.65;;;;;;;6.24;100.00;98863.31;6312547;22;20023;-94
2023/12/07 11:05:22;;;;;;;16.65;6.93;;;;;;;6.07;100.00;98835.28;6311970;22;20502;-90
2023/12/07 11:07:57;;;;;;;19.38;6.68;;;;;;;6.17;100.00;98870.41;6312530;22;20068;-92
2023/12/07 11:10:32;;;;;;;17.00;7.28;;;;;;;7.03;100.00;99000.94;6312690;22;20064;-91
2023/12/07 11:13:09;;;;;;;23.42;7.47;;;;;;;7.12;100.00;99029.94;6312621;22;20015;-92
2023/12/07 11:15:34;;;;;;;;;;;;;;;7.05;100.00;99029.13;6312813;22;20026;-93
2023/12/07 11:18:02;;;;;;;17.10;6.28;;;;;;;6.00;100.00;98856.47;6312851;22;19918;-93
2023/12/07 11:20:41;;;;;;;19.02;8.20;;;;;;;6.23;100.00;98877.41;6314169;22;20015;-93
2023/12/07 11:23:16;;;;;;;24.33;7.03;;;;;;;6.48;100.00;98905.34;6312519;22;20019;-93